Milei Airstrip

METAR YBCS TAF YBCS
29 °C
°C
-
°C
32m
Edad
01:02:27
LT
00:02
UTC
0 ft

1.000

2.000

3.000

4.000

5.000

VFR
<?= Yii::t('app', 'Wind direction') ?> <?= Yii::t('app', 'of'); ?>
050°
18:55
Puesta de sol
74%
Humedad
Cizalladura del viento
Cerrado/Nieve
Alcance visual RWY
Estado de la RWY
Visibilidad vert.
Visibilidad mínima
CAVOK
Tendencia
Corrección
Informe especial
1005 hPa
QNH
METAR YBCS 312330Z AUTO 05002KT 9999 // NCD 29/24 Q1005 RF00.0/000.0
Despejado
0 kt
0 kt
10 km+
Visibilidad
No
Cielo nuboso
2 kt
Viento
metar-taf.com/AYEI

Metar-Taf.com

Decodificador visual

Nosotros y terceros seguimos tu comportamiento en Internet en nuestro sitio web con cookies. Si continúas, asumimos que estás de acuerdo con nuestra Política de cookies.